sensor_id;sensor_type;location;lat;lon;timestamp;pressure;altitude;pressure_sealevel;temperature;humidity
44198;BME280;30157;55.512;37.764;2023-10-31T00:00:29;99283.88;;;5.10;100.00
44198;BME280;30157;55.512;37.764;2023-10-31T00:02:55;99301.13;;;5.20;100.00
44198;BME280;30157;55.512;37.764;2023-10-31T00:05:20;99304.53;;;5.17;100.00
44198;BME280;30157;55.512;37.764;2023-10-31T00:07:46;99275.22;;;4.98;100.00
44198;BME280;30157;55.512;37.764;2023-10-31T00:10:12;99271.59;;;4.79;100.00
44198;BME280;30157;55.512;37.764;2023-10-31T00:12:39;99305.09;;;4.88;100.00
44198;BME280;30157;55.512;37.764;2023-10-31T00:15:05;99236.16;;;4.49;100.00
44198;BME280;30157;55.512;37.764;2023-10-31T00:17:31;99284.41;;;4.78;100.00
44198;BME280;30157;55.512;37.764;2023-10-31T00:19:57;99237.78;;;4.39;100.00
44198;BME280;30157;55.512;37.764;2023-10-31T00:22:23;99310.06;;;4.70;100.00
44198;BME280;30157;55.512;37.764;2023-10-31T00:24:49;99218.69;;;4.17;100.00
44198;BME280;30157;55.512;37.764;2023-10-31T00:27:15;99309.16;;;4.63;100.00
44198;BME280;30157;55.512;37.764;2023-10-31T00:29:41;99297.00;;;4.51;100.00
44198;BME280;30157;55.512;37.764;2023-10-31T00:32:07;99236.56;;;4.09;100.00
44198;BME280;30157;55.512;37.764;2023-10-31T00:34:33;99300.31;;;4.41;100.00
44198;BME280;30157;55.512;37.764;2023-10-31T00:36:59;99332.09;;;4.49;100.00
44198;BME280;30157;55.512;37.764;2023-10-31T00:39:24;99218.38;;;3.89;100.00
44198;BME280;30157;55.512;37.764;2023-10-31T00:41:50;99324.47;;;4.57;100.00
44198;BME280;30157;55.512;37.764;2023-10-31T00:44:16;99331.38;;;4.60;100.00
44198;BME280;30157;55.512;37.764;2023-10-31T00:46:42;99305.41;;;4.38;100.00
44198;BME280;30157;55.512;37.764;2023-10-31T00:49:09;99248.50;;;4.06;100.00
44198;BME280;30157;55.512;37.764;2023-10-31T00:51:34;99252.81;;;4.07;100.00
44198;BME280;30157;55.512;37.764;2023-10-31T00:54:00;99326.09;;;4.49;100.00
44198;BME280;30157;55.512;37.764;2023-10-31T00:56:26;99351.13;;;4.64;100.00
44198;BME280;30157;55.512;37.764;2023-10-31T00:58:52;99267.47;;;4.15;100.00
44198;BME280;30157;55.512;37.764;2023-10-31T01:01:17;99347.88;;;4.79;100.00
44198;BME280;30157;55.512;37.764;2023-10-31T01:03:44;99356.34;;;4.70;100.00
44198;BME280;30157;55.512;37.764;2023-10-31T01:06:09;99355.47;;;4.69;100.00
44198;BME280;30157;55.512;37.764;2023-10-31T01:08:35;99356.38;;;4.75;100.00
44198;BME280;30157;55.512;37.764;2023-10-31T01:11:01;99355.56;;;4.79;100.00
44198;BME280;30157;55.512;37.764;2023-10-31T01:13:27;99277.13;;;4.35;100.00
44198;BME280;30157;55.512;37.764;2023-10-31T01:15:53;99273.75;;;4.37;100.00
44198;BME280;30157;55.512;37.764;2023-10-31T01:18:19;99359.09;;;4.88;100.00
44198;BME280;30157;55.512;37.764;2023-10-31T01:20:46;99298.75;;;4.52;100.00
44198;BME280;30157;55.512;37.764;2023-10-31T01:23:12;99285.78;;;4.43;100.00
44198;BME280;30157;55.512;37.764;2023-10-31T01:25:38;99375.44;;;4.92;100.00
44198;BME280;30157;55.512;37.764;2023-10-31T01:28:04;99277.09;;;4.33;100.00
44198;BME280;30157;55.512;37.764;2023-10-31T01:30:30;99378.84;;;4.91;100.00
44198;BME280;30157;55.512;37.764;2023-10-31T01:32:56;99370.28;;;4.89;100.00
44198;BME280;30157;55.512;37.764;2023-10-31T01:35:21;99386.66;;;4.97;100.00
44198;BME280;30157;55.512;37.764;2023-10-31T01:37:47;99379.78;;;4.96;100.00
44198;BME280;30157;55.512;37.764;2023-10-31T01:40:13;99390.06;;;4.99;100.00
44198;BME280;30157;55.512;37.764;2023-10-31T01:42:39;99300.31;;;4.43;100.00
44198;BME280;30157;55.512;37.764;2023-10-31T01:45:07;99341.66;;;4.60;100.00
44198;BME280;30157;55.512;37.764;2023-10-31T01:47:33;99401.28;;;5.04;100.00
44198;BME280;30157;55.512;37.764;2023-10-31T01:49:59;99387.50;;;4.98;100.00
44198;BME280;30157;55.512;37.764;2023-10-31T01:52:26;99195.94;;;3.76;100.00
44198;BME280;30157;55.512;37.764;2023-10-31T01:54:52;99399.53;;;5.00;100.00
44198;BME280;30157;55.512;37.764;2023-10-31T01:57:21;99321.88;;;4.54;100.00
44198;BME280;30157;55.512;37.764;2023-10-31T01:59:47;99330.56;;;4.64;100.00
44198;BME280;30157;55.512;37.764;2023-10-31T02:02:13;99411.66;;;5.11;100.00
44198;BME280;30157;55.512;37.764;2023-10-31T02:04:39;99428.78;;;5.10;100.00
44198;BME280;30157;55.512;37.764;2023-10-31T02:07:05;99417.53;;;5.02;100.00
44198;BME280;30157;55.512;37.764;2023-10-31T02:09:32;99423.63;;;5.09;100.00
44198;BME280;30157;55.512;37.764;2023-10-31T02:11:58;99397.75;;;4.93;100.00
44198;BME280;30157;55.512;37.764;2023-10-31T02:14:24;99434.81;;;5.11;100.00
44198;BME280;30157;55.512;37.764;2023-10-31T02:16:51;99412.38;;;4.99;100.00
44198;BME280;30157;55.512;37.764;2023-10-31T02:19:20;99427.94;;;5.11;100.00
44198;BME280;30157;55.512;37.764;2023-10-31T02:21:46;99403.69;;;4.89;100.00
44198;BME280;30157;55.512;37.764;2023-10-31T02:24:12;99403.81;;;4.98;100.00
44198;BME280;30157;55.512;37.764;2023-10-31T02:26:38;99427.03;;;5.06;100.00
44198;BME280;30157;55.512;37.764;2023-10-31T02:29:04;99436.50;;;5.10;100.00
44198;BME280;30157;55.512;37.764;2023-10-31T02:31:30;99372.63;;;4.72;100.00
44198;BME280;30157;55.512;37.764;2023-10-31T02:33:56;99392.47;;;4.81;100.00
44198;BME280;30157;55.512;37.764;2023-10-31T02:36:22;99444.25;;;5.12;100.00
44198;BME280;30157;55.512;37.764;2023-10-31T02:38:49;99461.47;;;5.19;100.00
44198;BME280;30157;55.512;37.764;2023-10-31T02:41:15;99452.81;;;5.12;100.00
44198;BME280;30157;55.512;37.764;2023-10-31T02:43:41;99369.81;;;4.52;100.00
44198;BME280;30157;55.512;37.764;2023-10-31T02:46:07;99471.53;;;4.97;100.00
44198;BME280;30157;55.512;37.764;2023-10-31T02:48:33;99472.31;;;4.93;100.00
44198;BME280;30157;55.512;37.764;2023-10-31T02:51:05;99471.38;;;4.85;100.00
44198;BME280;30157;55.512;37.764;2023-10-31T02:53:31;99475.59;;;4.81;100.00
44198;BME280;30157;55.512;37.764;2023-10-31T02:55:57;99474.75;;;4.81;100.00
44198;BME280;30157;55.512;37.764;2023-10-31T02:58:22;99467.78;;;4.75;100.00
44198;BME280;30157;55.512;37.764;2023-10-31T03:00:48;99475.56;;;4.77;100.00
44198;BME280;30157;55.512;37.764;2023-10-31T03:03:14;99466.06;;;4.73;100.00
44198;BME280;30157;55.512;37.764;2023-10-31T03:05:40;99435.81;;;4.54;100.00
44198;BME280;30157;55.512;37.764;2023-10-31T03:08:05;99500.59;;;4.92;100.00
44198;BME280;30157;55.512;37.764;2023-10-31T03:10:34;99422.00;;;4.46;100.00
44198;BME280;30157;55.512;37.764;2023-10-31T03:12:59;99505.78;;;4.96;100.00
44198;BME280;30157;55.512;37.764;2023-10-31T03:15:25;99496.22;;;4.86;100.00
44198;BME280;30157;55.512;37.764;2023-10-31T03:17:51;99506.72;;;5.01;100.00
44198;BME280;30157;55.512;37.764;2023-10-31T03:20:17;99486.88;;;4.91;100.00
44198;BME280;30157;55.512;37.764;2023-10-31T03:22:43;99490.34;;;4.93;100.00
44198;BME280;30157;55.512;37.764;2023-10-31T03:25:09;99428.94;;;4.52;100.00
44198;BME280;30157;55.512;37.764;2023-10-31T03:27:35;99499.78;;;4.96;100.00
44198;BME280;30157;55.512;37.764;2023-10-31T03:30:01;99426.31;;;4.47;100.00
44198;BME280;30157;55.512;37.764;2023-10-31T03:32:31;99519.59;;;5.03;100.00
44198;BME280;30157;55.512;37.764;2023-10-31T03:34:57;99440.13;;;4.56;100.00
44198;BME280;30157;55.512;37.764;2023-10-31T03:37:22;99447.94;;;4.62;100.00
44198;BME280;30157;55.512;37.764;2023-10-31T03:39:48;99523.13;;;5.13;100.00
44198;BME280;30157;55.512;37.764;2023-10-31T03:42:14;99518.78;;;5.07;100.00
44198;BME280;30157;55.512;37.764;2023-10-31T03:44:39;99507.53;;;4.97;100.00
44198;BME280;30157;55.512;37.764;2023-10-31T03:47:06;99504.94;;;4.94;100.00
44198;BME280;30157;55.512;37.764;2023-10-31T03:49:31;99530.72;;;5.02;100.00
44198;BME280;30157;55.512;37.764;2023-10-31T03:51:57;99452.09;;;4.53;100.00
44198;BME280;30157;55.512;37.764;2023-10-31T03:54:23;99522.94;;;4.94;100.00
44198;BME280;30157;55.512;37.764;2023-10-31T03:56:49;99461.63;;;4.61;100.00
44198;BME280;30157;55.512;37.764;2023-10-31T03:59:16;99461.66;;;4.62;100.00
44198;BME280;30157;55.512;37.764;2023-10-31T04:01:42;99484.91;;;4.73;100.00
44198;BME280;30157;55.512;37.764;2023-10-31T04:04:08;99543.72;;;5.11;100.00
44198;BME280;30157;55.512;37.764;2023-10-31T04:06:33;99528.94;;;4.95;100.00
44198;BME280;30157;55.512;37.764;2023-10-31T04:08:59;99551.38;;;5.07;100.00
44198;BME280;30157;55.512;37.764;2023-10-31T04:11:25;99558.19;;;5.04;100.00
44198;BME280;30157;55.512;37.764;2023-10-31T04:13:51;99469.22;;;4.51;100.00
44198;BME280;30157;55.512;37.764;2023-10-31T04:16:16;99561.63;;;5.03;100.00
44198;BME280;30157;55.512;37.764;2023-10-31T04:18:42;99566.66;;;4.96;100.00
44198;BME280;30157;55.512;37.764;2023-10-31T04:21:08;99503.41;;;4.47;100.00
44198;BME280;30157;55.512;37.764;2023-10-31T04:23:33;99569.09;;;4.85;100.00
44198;BME280;30157;55.512;37.764;2023-10-31T04:25:59;99566.59;;;4.93;100.00
44198;BME280;30157;55.512;37.764;2023-10-31T04:28:25;99461.25;;;4.34;100.00
44198;BME280;30157;55.512;37.764;2023-10-31T04:30:50;99578.78;;;5.04;100.00
44198;BME280;30157;55.512;37.764;2023-10-31T04:33:16;99492.38;;;4.54;100.00
44198;BME280;30157;55.512;37.764;2023-10-31T04:35:42;99577.94;;;5.05;100.00
44198;BME280;30157;55.512;37.764;2023-10-31T04:38:08;99542.50;;;4.84;100.00
44198;BME280;30157;55.512;37.764;2023-10-31T04:40:34;99556.97;;;4.78;100.00
44198;BME280;30157;55.512;37.764;2023-10-31T04:43:01;99591.59;;;5.00;100.00
44198;BME280;30157;55.512;37.764;2023-10-31T04:45:27;99555.44;;;4.89;100.00
44198;BME280;30157;55.512;37.764;2023-10-31T04:47:53;99575.25;;;4.98;100.00
44198;BME280;30157;55.512;37.764;2023-10-31T04:50:19;99582.81;;;4.87;100.00
44198;BME280;30157;55.512;37.764;2023-10-31T04:52:44;99590.50;;;4.85;100.00
44198;BME280;30157;55.512;37.764;2023-10-31T04:55:10;99558.63;;;4.73;100.00
44198;BME280;30157;55.512;37.764;2023-10-31T04:57:36;99608.78;;;5.04;100.00
44198;BME280;30157;55.512;37.764;2023-10-31T05:00:02;99587.16;;;4.91;100.00
44198;BME280;30157;55.512;37.764;2023-10-31T05:02:31;99594.03;;;4.91;100.00
44198;BME280;30157;55.512;37.764;2023-10-31T05:04:57;99600.97;;;4.96;100.00
44198;BME280;30157;55.512;37.764;2023-10-31T05:07:23;99520.66;;;4.54;100.00
44198;BME280;30157;55.512;37.764;2023-10-31T05:09:49;99522.41;;;4.59;100.00
44198;BME280;30157;55.512;37.764;2023-10-31T05:12:15;99620.88;;;5.10;100.00
44198;BME280;30157;55.512;37.764;2023-10-31T05:14:40;99538.91;;;4.73;100.00
44198;BME280;30157;55.512;37.764;2023-10-31T05:17:06;99612.44;;;5.20;100.00
44198;BME280;30157;55.512;37.764;2023-10-31T05:19:32;99633.88;;;5.19;100.00
44198;BME280;30157;55.512;37.764;2023-10-31T05:21:58;99588.88;;;4.89;100.00
44198;BME280;30157;55.512;37.764;2023-10-31T05:24:23;99606.28;;;5.10;100.00
44198;BME280;30157;55.512;37.764;2023-10-31T05:26:49;99638.22;;;5.25;100.00
44198;BME280;30157;55.512;37.764;2023-10-31T05:29:15;99645.75;;;5.11;100.00
44198;BME280;30157;55.512;37.764;2023-10-31T05:31:40;99611.94;;;4.86;100.00
44198;BME280;30157;55.512;37.764;2023-10-31T05:34:07;99638.53;;;4.86;100.00
44198;BME280;30157;55.512;37.764;2023-10-31T05:36:33;99556.28;;;4.31;100.00
44198;BME280;30157;55.512;37.764;2023-10-31T05:38:58;99633.19;;;4.73;100.00
44198;BME280;30157;55.512;37.764;2023-10-31T05:41:25;99636.91;;;4.90;100.00
44198;BME280;30157;55.512;37.764;2023-10-31T05:43:51;99656.25;;;5.25;100.00
44198;BME280;30157;55.512;37.764;2023-10-31T05:46:16;99631.47;;;5.31;100.00
44198;BME280;30157;55.512;37.764;2023-10-31T05:48:46;99639.38;;;5.45;100.00
44198;BME280;30157;55.512;37.764;2023-10-31T05:51:17;99655.59;;;5.41;100.00
44198;BME280;30157;55.512;37.764;2023-10-31T05:53:45;99642.66;;;5.33;100.00
44198;BME280;30157;55.512;37.764;2023-10-31T05:56:12;99665.88;;;5.39;100.00
44198;BME280;30157;55.512;37.764;2023-10-31T05:58:39;99669.34;;;5.40;100.00
44198;BME280;30157;55.512;37.764;2023-10-31T06:01:05;99589.88;;;5.00;100.00
44198;BME280;30157;55.512;37.764;2023-10-31T06:03:32;99513.72;;;4.50;100.00
44198;BME280;30157;55.512;37.764;2023-10-31T06:05:58;99677.94;;;5.44;100.00
44198;BME280;30157;55.512;37.764;2023-10-31T06:08:23;99640.75;;;5.20;100.00
44198;BME280;30157;55.512;37.764;2023-10-31T06:10:50;99684.94;;;5.51;100.00
44198;BME280;30157;55.512;37.764;2023-10-31T06:13:16;99713.59;;;5.77;100.00
44198;BME280;30157;55.512;37.764;2023-10-31T06:15:43;99600.31;;;5.11;100.00
44198;BME280;30157;55.512;37.764;2023-10-31T06:18:10;99719.66;;;5.82;100.00
44198;BME280;30157;55.512;37.764;2023-10-31T06:20:35;99643.59;;;5.38;100.00
44198;BME280;30157;55.512;37.764;2023-10-31T06:23:02;99694.69;;;5.75;100.00
44198;BME280;30157;55.512;37.764;2023-10-31T06:25:31;99641.09;;;5.46;100.00
44198;BME280;30157;55.512;37.764;2023-10-31T06:27:57;99718.06;;;5.92;100.00
44198;BME280;30157;55.512;37.764;2023-10-31T06:30:22;99734.50;;;5.99;100.00
44198;BME280;30157;55.512;37.764;2023-10-31T06:32:53;99572.00;;;5.11;100.00
44198;BME280;30157;55.512;37.764;2023-10-31T06:35:19;99688.84;;;5.88;100.00
44198;BME280;30157;55.512;37.764;2023-10-31T06:37:46;99714.81;;;6.05;100.00
44198;BME280;30157;55.512;37.764;2023-10-31T06:40:12;99725.22;;;6.12;100.00
44198;BME280;30157;55.512;37.764;2023-10-31T06:42:38;99721.81;;;6.14;100.00
44198;BME280;30157;55.512;37.764;2023-10-31T06:45:05;99704.56;;;6.09;100.00
44198;BME280;30157;55.512;37.764;2023-10-31T06:47:33;99734.81;;;6.25;100.00
44198;BME280;30157;55.512;37.764;2023-10-31T06:50:00;99745.16;;;6.28;100.00
44198;BME280;30157;55.512;37.764;2023-10-31T06:52:26;99715.72;;;6.08;100.00
44198;BME280;30157;55.512;37.764;2023-10-31T06:54:52;99657.00;;;5.83;100.00
44198;BME280;30157;55.512;37.764;2023-10-31T06:57:17;99759.09;;;6.44;100.00
44198;BME280;30157;55.512;37.764;2023-10-31T06:59:43;99704.63;;;6.16;100.00
44198;BME280;30157;55.512;37.764;2023-10-31T07:02:09;99762.63;;;6.55;100.00
44198;BME280;30157;55.512;37.764;2023-10-31T07:04:34;99678.88;;;6.16;100.00
44198;BME280;30157;55.512;37.764;2023-10-31T07:07:00;99760.31;;;6.77;100.00
44198;BME280;30157;55.512;37.764;2023-10-31T07:09:27;99742.91;;;6.59;100.00
44198;BME280;30157;55.512;37.764;2023-10-31T07:11:53;99716.09;;;6.43;100.00
44198;BME280;30157;55.512;37.764;2023-10-31T07:14:19;99759.44;;;6.78;100.00
44198;BME280;30157;55.512;37.764;2023-10-31T07:16:44;99741.31;;;6.70;100.00
44198;BME280;30157;55.512;37.764;2023-10-31T07:19:11;99718.03;;;6.66;100.00
44198;BME280;30157;55.512;37.764;2023-10-31T07:21:37;99730.09;;;6.68;100.00
44198;BME280;30157;55.512;37.764;2023-10-31T07:24:02;99772.50;;;6.97;100.00
44198;BME280;30157;55.512;37.764;2023-10-31T07:26:29;99773.41;;;7.02;100.00
44198;BME280;30157;55.512;37.764;2023-10-31T07:28:54;99806.25;;;7.18;100.00
44198;BME280;30157;55.512;37.764;2023-10-31T07:31:21;99803.72;;;7.23;100.00
44198;BME280;30157;55.512;37.764;2023-10-31T07:33:47;99776.94;;;7.13;100.00
44198;BME280;30157;55.512;37.764;2023-10-31T07:36:13;99783.91;;;7.20;100.00
44198;BME280;30157;55.512;37.764;2023-10-31T07:38:39;99790.00;;;7.33;100.00
44198;BME280;30157;55.512;37.764;2023-10-31T07:41:04;99715.63;;;6.84;100.00
44198;BME280;30157;55.512;37.764;2023-10-31T07:43:30;99804.81;;;7.54;100.00
44198;BME280;30157;55.512;37.764;2023-10-31T07:45:56;99807.56;;;7.78;100.00
44198;BME280;30157;55.512;37.764;2023-10-31T07:48:22;99805.94;;;7.98;100.00
44198;BME280;30157;55.512;37.764;2023-10-31T07:50:47;99691.34;;;7.87;100.00
44198;BME280;30157;55.512;37.764;2023-10-31T07:53:13;99814.06;;;8.76;100.00
44198;BME280;30157;55.512;37.764;2023-10-31T07:55:39;99813.22;;;8.87;100.00
44198;BME280;30157;55.512;37.764;2023-10-31T07:58:04;99816.72;;;9.28;100.00
44198;BME280;30157;55.512;37.764;2023-10-31T08:00:30;99745.00;;;9.75;100.00
44198;BME280;30157;55.512;37.764;2023-10-31T08:02:56;99780.38;;;9.99;100.00
44198;BME280;30157;55.512;37.764;2023-10-31T08:05:22;99802.66;;;10.54;100.00
44198;BME280;30157;55.512;37.764;2023-10-31T08:07:47;99832.94;;;10.49;100.00
44198;BME280;30157;55.512;37.764;2023-10-31T08:10:14;99738.97;;;9.76;100.00
44198;BME280;30157;55.512;37.764;2023-10-31T08:12:39;99707.09;;;9.20;100.00
44198;BME280;30157;55.512;37.764;2023-10-31T08:15:05;99824.47;;;9.71;100.00
44198;BME280;30157;55.512;37.764;2023-10-31T08:17:31;99794.28;;;9.38;100.00
44198;BME280;30157;55.512;37.764;2023-10-31T08:19:58;99822.78;;;9.52;100.00
44198;BME280;30157;55.512;37.764;2023-10-31T08:22:23;99784.72;;;9.79;100.00
44198;BME280;30157;55.512;37.764;2023-10-31T08:24:49;99794.19;;;11.52;100.00
44198;BME280;30157;55.512;37.764;2023-10-31T08:27:15;99751.69;;;12.96;100.00
44198;BME280;30157;55.512;37.764;2023-10-31T08:29:41;99779.66;;;13.39;100.00
44198;BME280;30157;55.512;37.764;2023-10-31T08:32:07;99823.91;;;12.85;100.00
44198;BME280;30157;55.512;37.764;2023-10-31T08:34:33;99606.41;;;11.34;100.00
44198;BME280;30157;55.512;37.764;2023-10-31T08:36:58;99742.50;;;12.72;100.00
44198;BME280;30157;55.512;37.764;2023-10-31T08:39:26;99790.50;;;13.66;100.00
44198;BME280;30157;55.512;37.764;2023-10-31T08:41:55;99798.44;;;12.43;100.00
44198;BME280;30157;55.512;37.764;2023-10-31T08:44:22;99751.94;;;11.26;100.00
44198;BME280;30157;55.512;37.764;2023-10-31T08:46:48;99744.63;;;10.68;100.00
44198;BME280;30157;55.512;37.764;2023-10-31T08:49:17;99807.91;;;10.33;100.00
44198;BME280;30157;55.512;37.764;2023-10-31T08:51:43;99825.19;;;10.41;100.00
44198;BME280;30157;55.512;37.764;2023-10-31T08:54:11;99825.94;;;10.67;100.00
44198;BME280;30157;55.512;37.764;2023-10-31T08:56:37;99779.34;;;10.45;100.00
44198;BME280;30157;55.512;37.764;2023-10-31T08:59:02;99787.09;;;10.53;100.00
44198;BME280;30157;55.512;37.764;2023-10-31T09:01:29;99793.97;;;10.62;100.00
44198;BME280;30157;55.512;37.764;2023-10-31T09:03:55;99742.03;;;10.66;100.00
44198;BME280;30157;55.512;37.764;2023-10-31T09:06:21;99835.19;;;11.14;100.00
44198;BME280;30157;55.512;37.764;2023-10-31T09:08:47;99846.63;;;10.82;100.00
44198;BME280;30157;55.512;37.764;2023-10-31T09:11:12;99802.63;;;10.59;100.00
44198;BME280;30157;55.512;37.764;2023-10-31T09:13:38;99814.84;;;10.37;100.00
44198;BME280;30157;55.512;37.764;2023-10-31T09:16:04;99823.56;;;10.11;100.00
44198;BME280;30157;55.512;37.764;2023-10-31T09:18:30;99828.78;;;9.85;100.00
44198;BME280;30157;55.512;37.764;2023-10-31T09:20:55;99836.59;;;9.71;100.00
44198;BME280;30157;55.512;37.764;2023-10-31T09:23:21;99617.34;;;8.28;100.00
44198;BME280;30157;55.512;37.764;2023-10-31T09:25:47;99835.72;;;9.47;100.00
44198;BME280;30157;55.512;37.764;2023-10-31T09:28:12;99824.47;;;9.13;100.00
44198;BME280;30157;55.512;37.764;2023-10-31T09:30:38;99859.75;;;8.67;100.00
44198;BME280;30157;55.512;37.764;2023-10-31T09:33:04;99843.28;;;8.45;100.00
44198;BME280;30157;55.512;37.764;2023-10-31T09:35:30;99839.69;;;8.21;100.00
44198;BME280;30157;55.512;37.764;2023-10-31T09:37:55;99770.59;;;7.91;100.00
44198;BME280;30157;55.512;37.764;2023-10-31T09:40:21;99717.06;;;7.62;100.00
44198;BME280;30157;55.512;37.764;2023-10-31T09:42:48;99833.69;;;8.27;100.00
44198;BME280;30157;55.512;37.764;2023-10-31T09:45:15;99825.88;;;8.22;100.00
44198;BME280;30157;55.512;37.764;2023-10-31T09:47:41;99834.53;;;8.20;100.00
44198;BME280;30157;55.512;37.764;2023-10-31T09:50:10;99792.09;;;7.85;100.00
44198;BME280;30157;55.512;37.764;2023-10-31T09:52:36;99801.66;;;8.02;100.00
44198;BME280;30157;55.512;37.764;2023-10-31T09:55:02;99818.97;;;8.15;100.00
44198;BME280;30157;55.512;37.764;2023-10-31T09:57:31;99831.94;;;8.21;100.00
44198;BME280;30157;55.512;37.764;2023-10-31T09:59:57;99837.16;;;8.31;100.00
44198;BME280;30157;55.512;37.764;2023-10-31T10:02:23;99816.41;;;8.20;100.00
44198;BME280;30157;55.512;37.764;2023-10-31T10:04:49;99838.00;;;8.27;100.00
44198;BME280;30157;55.512;37.764;2023-10-31T10:07:18;99844.88;;;8.21;100.00
44198;BME280;30157;55.512;37.764;2023-10-31T10:09:46;99743.75;;;7.61;100.00
44198;BME280;30157;55.512;37.764;2023-10-31T10:12:13;99849.19;;;8.27;100.00
44198;BME280;30157;55.512;37.764;2023-10-31T10:14:39;99858.66;;;8.25;100.00
44198;BME280;30157;55.512;37.764;2023-10-31T10:17:16;99862.97;;;8.24;100.00
44198;BME280;30157;55.512;37.764;2023-10-31T10:19:42;99741.09;;;7.52;100.00
44198;BME280;30157;55.512;37.764;2023-10-31T10:22:08;99628.78;;;6.86;100.00
44198;BME280;30157;55.512;37.764;2023-10-31T10:24:39;99832.69;;;8.03;100.00
44198;BME280;30157;55.512;37.764;2023-10-31T10:27:07;99750.66;;;7.67;100.00
44198;BME280;30157;55.512;37.764;2023-10-31T10:29:34;99847.47;;;8.26;100.00
44198;BME280;30157;55.512;37.764;2023-10-31T10:32:00;99748.97;;;7.70;100.00
44198;BME280;30157;55.512;37.764;2023-10-31T10:34:26;99724.88;;;7.78;100.00
44198;BME280;30157;55.512;37.764;2023-10-31T10:36:53;99730.88;;;7.75;100.00
44198;BME280;30157;55.512;37.764;2023-10-31T10:39:20;99815.53;;;8.22;100.00
44198;BME280;30157;55.512;37.764;2023-10-31T10:41:52;99738.63;;;7.73;100.00
44198;BME280;30157;55.512;37.764;2023-10-31T10:44:20;99831.91;;;8.17;100.00
44198;BME280;30157;55.512;37.764;2023-10-31T10:46:50;99735.97;;;7.60;100.00
44198;BME280;30157;55.512;37.764;2023-10-31T10:49:24;99746.34;;;7.66;100.00
44198;BME280;30157;55.512;37.764;2023-10-31T10:51:58;99799.97;;;8.04;100.00
44198;BME280;30157;55.512;37.764;2023-10-31T10:57:24;99816.44;;;8.23;100.00
44198;BME280;30157;55.512;37.764;2023-10-31T10:59:55;99821.59;;;8.23;100.00
44198;BME280;30157;55.512;37.764;2023-10-31T11:02:24;99836.28;;;8.32;100.00
44198;BME280;30157;55.512;37.764;2023-10-31T11:04:51;99837.16;;;8.32;100.00
44198;BME280;30157;55.512;37.764;2023-10-31T11:07:17;99802.56;;;8.10;100.00
44198;BME280;30157;55.512;37.764;2023-10-31T11:09:45;99845.75;;;8.27;100.00
44198;BME280;30157;55.512;37.764;2023-10-31T11:12:12;99824.91;;;7.99;100.00
44198;BME280;30157;55.512;37.764;2023-10-31T11:14:39;99802.38;;;7.73;100.00
44198;BME280;30157;55.512;37.764;2023-10-31T11:17:24;99817.94;;;7.84;100.00
44198;BME280;30157;55.512;37.764;2023-10-31T11:19:51;99769.50;;;7.49;100.00
44198;BME280;30157;55.512;37.764;2023-10-31T11:22:18;99810.13;;;7.78;100.00
44198;BME280;30157;55.512;37.764;2023-10-31T11:24:44;99838.72;;;8.02;100.00
44198;BME280;30157;55.512;37.764;2023-10-31T11:27:10;99836.09;;;7.98;100.00
44198;BME280;30157;55.512;37.764;2023-10-31T11:29:36;99843.03;;;8.02;100.00
44198;BME280;30157;55.512;37.764;2023-10-31T11:32:03;99820.47;;;7.81;100.00
44198;BME280;30157;55.512;37.764;2023-10-31T11:34:32;99738.38;;;7.35;100.00
44198;BME280;30157;55.512;37.764;2023-10-31T11:37:24;99839.53;;;7.92;100.00
44198;BME280;30157;55.512;37.764;2023-10-31T11:42:40;99738.38;;;7.32;100.00
44198;BME280;30157;55.512;37.764;2023-10-31T11:45:10;99807.59;;;7.85;100.00
44198;BME280;30157;55.512;37.764;2023-10-31T11:50:12;99795.53;;;7.86;100.00
44198;BME280;30157;55.512;37.764;2023-10-31T11:52:38;99807.66;;;7.93;100.00
44198;BME280;30157;55.512;37.764;2023-10-31T11:55:11;99801.59;;;7.85;100.00
44198;BME280;30157;55.512;37.764;2023-10-31T11:57:38;99838.72;;;8.02;100.00
44198;BME280;30157;55.512;37.764;2023-10-31T12:00:05;99798.97;;;7.80;100.00
44198;BME280;30157;55.512;37.764;2023-10-31T12:02:41;99810.19;;;7.82;100.00
44198;BME280;30157;55.512;37.764;2023-10-31T12:05:11;99827.47;;;7.94;100.00
44198;BME280;30157;55.512;37.764;2023-10-31T12:07:45;99765.25;;;7.62;100.00
44198;BME280;30157;55.512;37.764;2023-10-31T12:10:12;99749.75;;;7.59;100.00
44198;BME280;30157;55.512;37.764;2023-10-31T12:12:38;99822.31;;;7.96;100.00
44198;BME280;30157;55.512;37.764;2023-10-31T12:15:07;99792.91;;;7.77;100.00
44198;BME280;30157;55.512;37.764;2023-10-31T12:17:34;99827.50;;;7.99;100.00
44198;BME280;30157;55.512;37.764;2023-10-31T12:20:06;99751.41;;;7.52;100.00
44198;BME280;30157;55.512;37.764;2023-10-31T12:22:36;99828.28;;;7.87;100.00
44198;BME280;30157;55.512;37.764;2023-10-31T12:25:03;99702.09;;;7.15;100.00
44198;BME280;30157;55.512;37.764;2023-10-31T12:27:48;99823.94;;;7.80;100.00
44198;BME280;30157;55.512;37.764;2023-10-31T12:30:20;99823.06;;;7.76;100.00
44198;BME280;30157;55.512;37.764;2023-10-31T12:32:54;99830.75;;;7.68;100.00
44198;BME280;30157;55.512;37.764;2023-10-31T12:35:22;99829.94;;;7.76;100.00
44198;BME280;30157;55.512;37.764;2023-10-31T12:37:49;99770.25;;;7.37;100.00
44198;BME280;30157;55.512;37.764;2023-10-31T12:40:22;99822.13;;;7.66;100.00
44198;BME280;30157;55.512;37.764;2023-10-31T12:42:49;99835.03;;;7.65;100.00
44198;BME280;30157;55.512;37.764;2023-10-31T12:45:16;99784.06;;;7.40;100.00
44198;BME280;30157;55.512;37.764;2023-10-31T12:47:44;99835.03;;;7.66;100.00
44198;BME280;30157;55.512;37.764;2023-10-31T12:50:13;99764.88;;;7.11;100.00
44198;BME280;30157;55.512;37.764;2023-10-31T12:52:53;99844.38;;;7.49;100.00
44198;BME280;30157;55.512;37.764;2023-10-31T12:55:24;99804.50;;;7.16;100.00